sensor_id;sensor_type;location;lat;lon;timestamp;pressure;altitude;pressure_sealevel;temperature;humidity
70684;BME280;58263;48.146;11.440;2023-02-18T00:00:05;96558.44;;;10.66;68.93
70684;BME280;58263;48.146;11.440;2023-02-18T00:02:32;96554.53;;;10.62;68.58
70684;BME280;58263;48.146;11.440;2023-02-18T00:04:57;96555.16;;;10.64;68.70
70684;BME280;58263;48.146;11.440;2023-02-18T00:07:23;96554.16;;;10.58;69.19
70684;BME280;58263;48.146;11.440;2023-02-18T00:09:48;96550.44;;;10.53;69.41
70684;BME280;58263;48.146;11.440;2023-02-18T00:12:13;96546.09;;;10.52;69.48
70684;BME280;58263;48.146;11.440;2023-02-18T00:14:38;96543.44;;;10.52;69.58
70684;BME280;58263;48.146;11.440;2023-02-18T00:17:04;96533.94;;;10.49;69.63
70684;BME280;58263;48.146;11.440;2023-02-18T00:19:29;96539.31;;;10.49;69.60
70684;BME280;58263;48.146;11.440;2023-02-18T00:21:54;96529.22;;;10.44;69.75
70684;BME280;58263;48.146;11.440;2023-02-18T00:24:19;96529.41;;;10.43;69.73
70684;BME280;58263;48.146;11.440;2023-02-18T00:26:49;96528.59;;;10.42;69.92
70684;BME280;58263;48.146;11.440;2023-02-18T00:29:15;96522.19;;;10.43;69.73
70684;BME280;58263;48.146;11.440;2023-02-18T00:31:40;96517.66;;;10.37;70.19
70684;BME280;58263;48.146;11.440;2023-02-18T00:34:06;96522.00;;;10.38;69.90
70684;BME280;58263;48.146;11.440;2023-02-18T00:36:31;96518.50;;;10.38;70.09
70684;BME280;58263;48.146;11.440;2023-02-18T00:38:58;96521.56;;;10.35;70.10
70684;BME280;58263;48.146;11.440;2023-02-18T00:41:26;96521.38;;;10.29;70.45
70684;BME280;58263;48.146;11.440;2023-02-18T00:43:52;96512.91;;;10.26;70.66
70684;BME280;58263;48.146;11.440;2023-02-18T00:46:18;96511.47;;;10.23;70.52
70684;BME280;58263;48.146;11.440;2023-02-18T00:48:44;96512.09;;;10.19;70.81
70684;BME280;58263;48.146;11.440;2023-02-18T00:51:10;96513.34;;;10.16;71.09
70684;BME280;58263;48.146;11.440;2023-02-18T00:53:36;96514.16;;;10.17;71.08
70684;BME280;58263;48.146;11.440;2023-02-18T00:56:02;96522.00;;;10.11;71.40
70684;BME280;58263;48.146;11.440;2023-02-18T00:58:27;96523.06;;;10.10;71.59
70684;BME280;58263;48.146;11.440;2023-02-18T01:00:54;96520.38;;;10.10;71.36
70684;BME280;58263;48.146;11.440;2023-02-18T01:03:19;96520.38;;;10.10;71.42
70684;BME280;58263;48.146;11.440;2023-02-18T01:05:46;96522.00;;;10.11;71.74
70684;BME280;58263;48.146;11.440;2023-02-18T01:08:12;96511.69;;;10.08;71.95
70684;BME280;58263;48.146;11.440;2023-02-18T01:10:41;96512.13;;;10.05;72.33
70684;BME280;58263;48.146;11.440;2023-02-18T01:13:07;96512.94;;;10.06;72.37
70684;BME280;58263;48.146;11.440;2023-02-18T01:15:32;96507.78;;;10.04;72.46
70684;BME280;58263;48.146;11.440;2023-02-18T01:17:57;96500.56;;;10.05;72.20
70684;BME280;58263;48.146;11.440;2023-02-18T01:20:23;96511.28;;;10.05;72.33
70684;BME280;58263;48.146;11.440;2023-02-18T01:22:48;96500.16;;;10.01;72.45
70684;BME280;58263;48.146;11.440;2023-02-18T01:25:14;96499.16;;;10.02;72.73
70684;BME280;58263;48.146;11.440;2023-02-18T01:27:39;96501.63;;;9.97;73.04
70684;BME280;58263;48.146;11.440;2023-02-18T01:30:06;96495.63;;;9.95;73.20
70684;BME280;58263;48.146;11.440;2023-02-18T01:32:32;96502.66;;;9.96;73.06
70684;BME280;58263;48.146;11.440;2023-02-18T01:35:00;96497.28;;;9.96;72.97
70684;BME280;58263;48.146;11.440;2023-02-18T01:37:25;96488.63;;;9.94;72.96
70684;BME280;58263;48.146;11.440;2023-02-18T01:39:51;96486.34;;;9.91;73.34
70684;BME280;58263;48.146;11.440;2023-02-18T01:42:22;96489.47;;;9.88;73.35
70684;BME280;58263;48.146;11.440;2023-02-18T01:44:48;96490.25;;;9.95;72.65
70684;BME280;58263;48.146;11.440;2023-02-18T01:47:14;96485.53;;;9.84;73.55
70684;BME280;58263;48.146;11.440;2023-02-18T01:49:40;96483.88;;;9.82;73.58
70684;BME280;58263;48.146;11.440;2023-02-18T01:52:14;96482.88;;;9.77;74.09
70684;BME280;58263;48.146;11.440;2023-02-18T01:54:51;96482.44;;;9.73;74.50
70684;BME280;58263;48.146;11.440;2023-02-18T01:57:24;96473.38;;;9.74;74.66
70684;BME280;58263;48.146;11.440;2023-02-18T01:59:53;96479.75;;;9.73;74.98
70684;BME280;58263;48.146;11.440;2023-02-18T02:02:21;96469.69;;;9.75;74.71
70684;BME280;58263;48.146;11.440;2023-02-18T02:04:48;96479.38;;;9.70;74.87
70684;BME280;58263;48.146;11.440;2023-02-18T02:07:15;96476.69;;;9.70;75.28
70684;BME280;58263;48.146;11.440;2023-02-18T02:09:42;96479.16;;;9.71;75.20
70684;BME280;58263;48.146;11.440;2023-02-18T02:18:02;96470.50;;;9.76;75.26
70684;BME280;58263;48.146;11.440;2023-02-18T02:23:50;96456.50;;;9.80;75.43
70684;BME280;58263;48.146;11.440;2023-02-18T02:35:23;96472.56;;;9.87;74.98
70684;BME280;58263;48.146;11.440;2023-02-18T02:46:17;96458.97;;;9.89;75.42
70684;BME280;58263;48.146;11.440;2023-02-18T02:51:26;96451.53;;;9.91;75.58
70684;BME280;58263;48.146;11.440;2023-02-18T02:53:52;96444.53;;;9.90;75.66
70684;BME280;58263;48.146;11.440;2023-02-18T02:56:20;96438.53;;;9.88;75.77
70684;BME280;58263;48.146;11.440;2023-02-18T02:58:59;96440.78;;;9.91;75.85
70684;BME280;58263;48.146;11.440;2023-02-18T03:10:09;96443.69;;;9.89;76.26
70684;BME280;58263;48.146;11.440;2023-02-18T03:21:00;96446.16;;;9.91;76.23
70684;BME280;58263;48.146;11.440;2023-02-18T03:23:32;96437.09;;;9.92;76.21
70684;BME280;58263;48.146;11.440;2023-02-18T03:26:00;96435.84;;;9.94;76.15
70684;BME280;58263;48.146;11.440;2023-02-18T03:28:28;96444.31;;;9.98;75.92
70684;BME280;58263;48.146;11.440;2023-02-18T03:31:01;96439.56;;;10.00;75.79
70684;BME280;58263;48.146;11.440;2023-02-18T03:33:36;96441.19;;;10.01;75.92
70684;BME280;58263;48.146;11.440;2023-02-18T03:36:03;96436.66;;;10.02;75.62
70684;BME280;58263;48.146;11.440;2023-02-18T03:38:39;96436.44;;;10.03;75.60
70684;BME280;58263;48.146;11.440;2023-02-18T03:41:06;96428.41;;;10.03;75.48
70684;BME280;58263;48.146;11.440;2023-02-18T03:43:32;96437.66;;;10.07;75.11
70684;BME280;58263;48.146;11.440;2023-02-18T03:45:58;96433.38;;;10.06;75.11
70684;BME280;58263;48.146;11.440;2023-02-18T03:48:25;96423.47;;;10.07;74.95
70684;BME280;58263;48.146;11.440;2023-02-18T03:50:50;96438.28;;;10.09;74.75
70684;BME280;58263;48.146;11.440;2023-02-18T03:53:16;96427.56;;;10.09;74.65
70684;BME280;58263;48.146;11.440;2023-02-18T03:55:41;96415.63;;;10.05;75.06
70684;BME280;58263;48.146;11.440;2023-02-18T03:58:07;96424.69;;;10.04;75.06
70684;BME280;58263;48.146;11.440;2023-02-18T04:00:32;96421.00;;;10.05;75.37
70684;BME280;58263;48.146;11.440;2023-02-18T04:02:57;96428.00;;;10.06;75.40
70684;BME280;58263;48.146;11.440;2023-02-18T04:05:23;96423.47;;;10.07;75.47
70684;BME280;58263;48.146;11.440;2023-02-18T04:07:48;96421.00;;;10.05;75.58
70684;BME280;58263;48.146;11.440;2023-02-18T04:10:13;96423.03;;;10.03;75.66
70684;BME280;58263;48.146;11.440;2023-02-18T04:12:39;96421.41;;;10.02;75.79
70684;BME280;58263;48.146;11.440;2023-02-18T04:15:04;96426.97;;;10.01;75.85
70684;BME280;58263;48.146;11.440;2023-02-18T04:17:32;96427.19;;;9.99;75.88
70684;BME280;58263;48.146;11.440;2023-02-18T04:19:57;96428.41;;;10.03;75.58
70684;BME280;58263;48.146;11.440;2023-02-18T04:22:22;96428.00;;;10.06;75.35
70684;BME280;58263;48.146;11.440;2023-02-18T04:24:48;96428.41;;;10.03;75.46
70684;BME280;58263;48.146;11.440;2023-02-18T04:27:13;96432.53;;;9.99;75.60
70684;BME280;58263;48.146;11.440;2023-02-18T04:29:38;96425.94;;;10.02;75.55
70684;BME280;58263;48.146;11.440;2023-02-18T04:32:04;96430.91;;;9.98;75.66
70684;BME280;58263;48.146;11.440;2023-02-18T04:34:29;96420.78;;;10.00;75.62
70684;BME280;58263;48.146;11.440;2023-02-18T04:36:55;96441.63;;;9.98;75.91
70684;BME280;58263;48.146;11.440;2023-02-18T04:39:21;96436.28;;;9.98;75.75
70684;BME280;58263;48.146;11.440;2023-02-18T04:41:46;96431.94;;;9.97;75.88
70684;BME280;58263;48.146;11.440;2023-02-18T04:44:12;96438.31;;;9.96;75.47
70684;BME280;58263;48.146;11.440;2023-02-18T04:46:37;96432.53;;;9.99;75.28
70684;BME280;58263;48.146;11.440;2023-02-18T04:49:02;96447.38;;;9.95;75.52
70684;BME280;58263;48.146;11.440;2023-02-18T04:51:28;96450.69;;;9.97;75.27
70684;BME280;58263;48.146;11.440;2023-02-18T04:53:53;96443.69;;;9.96;75.45
70684;BME280;58263;48.146;11.440;2023-02-18T04:56:18;96438.53;;;9.94;75.35
70684;BME280;58263;48.146;11.440;2023-02-18T04:58:44;96450.50;;;9.92;75.30
70684;BME280;58263;48.146;11.440;2023-02-18T05:01:09;96447.38;;;9.95;75.19
70684;BME280;58263;48.146;11.440;2023-02-18T05:03:35;96448.81;;;9.97;75.04
70684;BME280;58263;48.146;11.440;2023-02-18T05:06:00;96444.47;;;10.03;74.79
70684;BME280;58263;48.146;11.440;2023-02-18T05:08:25;96448.22;;;10.02;74.86
70684;BME280;58263;48.146;11.440;2023-02-18T05:10:51;96434.19;;;10.00;74.83
70684;BME280;58263;48.146;11.440;2023-02-18T05:13:16;96430.47;;;10.01;74.65
70684;BME280;58263;48.146;11.440;2023-02-18T05:15:42;96429.84;;;9.99;74.58
70684;BME280;58263;48.146;11.440;2023-02-18T05:18:07;96431.28;;;10.02;74.50
70684;BME280;58263;48.146;11.440;2023-02-18T05:20:33;96431.31;;;9.95;74.49
70684;BME280;58263;48.146;11.440;2023-02-18T05:22:59;96431.28;;;10.02;74.25
70684;BME280;58263;48.146;11.440;2023-02-18T05:25:24;96427.19;;;9.99;74.30
70684;BME280;58263;48.146;11.440;2023-02-18T05:27:50;96430.09;;;9.91;74.42
70684;BME280;58263;48.146;11.440;2023-02-18T05:30:15;96435.44;;;9.91;74.31
70684;BME280;58263;48.146;11.440;2023-02-18T05:32:40;96420.59;;;9.95;74.15
70684;BME280;58263;48.146;11.440;2023-02-18T05:35:06;96420.59;;;9.95;74.02
70684;BME280;58263;48.146;11.440;2023-02-18T05:37:32;96418.53;;;9.97;74.05
70684;BME280;58263;48.146;11.440;2023-02-18T05:39:57;96426.38;;;9.98;73.87
70684;BME280;58263;48.146;11.440;2023-02-18T05:42:22;96421.44;;;9.95;73.81
70684;BME280;58263;48.146;11.440;2023-02-18T05:44:48;96417.31;;;9.93;73.57
70684;BME280;58263;48.146;11.440;2023-02-18T05:47:13;96427.59;;;9.96;73.57
70684;BME280;58263;48.146;11.440;2023-02-18T05:49:40;96416.28;;;9.94;73.68
70684;BME280;58263;48.146;11.440;2023-02-18T05:52:06;96425.72;;;9.96;73.63
70684;BME280;58263;48.146;11.440;2023-02-18T05:54:33;96423.91;;;9.97;73.25
70684;BME280;58263;48.146;11.440;2023-02-18T05:56:59;96423.47;;;10.00;73.42
70684;BME280;58263;48.146;11.440;2023-02-18T05:59:24;96417.91;;;9.95;73.32
70684;BME280;58263;48.146;11.440;2023-02-18T06:01:50;96425.56;;;9.98;73.17
70684;BME280;58263;48.146;11.440;2023-02-18T06:04:15;96419.13;;;9.99;72.91
70684;BME280;58263;48.146;11.440;2023-02-18T06:06:41;96429.25;;;9.97;72.91
70684;BME280;58263;48.146;11.440;2023-02-18T06:09:07;96418.53;;;9.97;72.96
70684;BME280;58263;48.146;11.440;2023-02-18T06:11:33;96424.50;;;9.99;72.82
70684;BME280;58263;48.146;11.440;2023-02-18T06:13:58;96424.91;;;10.03;72.65
70684;BME280;58263;48.146;11.440;2023-02-18T06:16:24;96429.84;;;9.99;72.74
70684;BME280;58263;48.146;11.440;2023-02-18T06:18:50;96436.28;;;9.98;72.98
70684;BME280;58263;48.146;11.440;2023-02-18T06:21:15;96432.13;;;10.02;72.50
70684;BME280;58263;48.146;11.440;2023-02-18T06:23:40;96432.94;;;10.03;72.43
70684;BME280;58263;48.146;11.440;2023-02-18T06:26:06;96435.81;;;10.14;72.15
70684;BME280;58263;48.146;11.440;2023-02-18T06:28:31;96433.53;;;10.11;71.73
70684;BME280;58263;48.146;11.440;2023-02-18T06:30:56;96444.03;;;10.20;71.43
70684;BME280;58263;48.146;11.440;2023-02-18T06:33:22;96437.88;;;10.12;71.49
70684;BME280;58263;48.146;11.440;2023-02-18T06:38:22;96434.16;;;10.13;70.99
70684;BME280;58263;48.146;11.440;2023-02-18T06:40:47;96442.22;;;10.13;71.24
70684;BME280;58263;48.146;11.440;2023-02-18T06:43:12;96451.03;;;10.21;70.92
70684;BME280;58263;48.146;11.440;2023-02-18T06:45:38;96438.50;;;10.14;70.93
70684;BME280;58263;48.146;11.440;2023-02-18T06:48:04;96443.44;;;10.18;70.97
70684;BME280;58263;48.146;11.440;2023-02-18T06:50:29;96450.84;;;10.22;70.67
70684;BME280;58263;48.146;11.440;2023-02-18T06:52:54;96450.63;;;10.24;70.54
70684;BME280;58263;48.146;11.440;2023-02-18T06:55:20;96437.03;;;10.25;70.45
70684;BME280;58263;48.146;11.440;2023-02-18T06:57:45;96434.34;;;10.25;70.47
70684;BME280;58263;48.146;11.440;2023-02-18T07:00:11;96428.56;;;10.22;70.59
70684;BME280;58263;48.146;11.440;2023-02-18T07:02:36;96434.13;;;10.34;70.26
70684;BME280;58263;48.146;11.440;2023-02-18T07:05:02;96433.47;;;10.31;70.31
70684;BME280;58263;48.146;11.440;2023-02-18T07:07:27;96428.75;;;10.40;70.00
70684;BME280;58263;48.146;11.440;2023-02-18T07:09:52;96433.25;;;10.46;69.68
70684;BME280;58263;48.146;11.440;2023-02-18T07:12:18;96427.47;;;10.49;69.36
70684;BME280;58263;48.146;11.440;2023-02-18T07:14:43;96413.88;;;10.44;69.25
70684;BME280;58263;48.146;11.440;2023-02-18T07:17:08;96422.53;;;10.46;69.20
70684;BME280;58263;48.146;11.440;2023-02-18T07:19:34;96433.25;;;10.46;68.86
70684;BME280;58263;48.146;11.440;2023-02-18T07:22:00;96438.19;;;10.49;68.91
70684;BME280;58263;48.146;11.440;2023-02-18T07:24:25;96407.66;;;10.51;68.85
70684;BME280;58263;48.146;11.440;2023-02-18T07:26:51;96422.94;;;10.50;68.76
70684;BME280;58263;48.146;11.440;2023-02-18T07:29:16;96444.78;;;10.54;68.88
70684;BME280;58263;48.146;11.440;2023-02-18T07:31:42;96437.34;;;10.56;68.95
70684;BME280;58263;48.146;11.440;2023-02-18T07:34:07;96446.22;;;10.49;68.72
70684;BME280;58263;48.146;11.440;2023-02-18T07:36:33;96442.09;;;10.54;68.89
70684;BME280;58263;48.146;11.440;2023-02-18T07:38:58;96433.66;;;10.50;68.84
70684;BME280;58263;48.146;11.440;2023-02-18T07:41:23;96426.66;;;10.49;68.70
70684;BME280;58263;48.146;11.440;2023-02-18T07:43:48;96431.97;;;10.56;68.79
70684;BME280;58263;48.146;11.440;2023-02-18T07:46:15;96443.75;;;10.55;68.83
70684;BME280;58263;48.146;11.440;2023-02-18T07:48:40;96440.03;;;10.56;68.84
70684;BME280;58263;48.146;11.440;2023-02-18T07:51:07;96434.84;;;10.61;68.67
70684;BME280;58263;48.146;11.440;2023-02-18T07:53:34;96438.13;;;10.63;68.76
70684;BME280;58263;48.146;11.440;2023-02-18T07:56:00;96443.72;;;10.61;68.80
70684;BME280;58263;48.146;11.440;2023-02-18T07:58:28;96429.50;;;10.61;68.86
70684;BME280;58263;48.146;11.440;2023-02-18T08:00:55;96435.44;;;10.63;68.65
70684;BME280;58263;48.146;11.440;2023-02-18T08:03:24;96438.09;;;10.70;68.62
70684;BME280;58263;48.146;11.440;2023-02-18T08:05:49;96418.72;;;10.68;68.51
70684;BME280;58263;48.146;11.440;2023-02-18T08:08:18;96411.72;;;10.67;68.84
70684;BME280;58263;48.146;11.440;2023-02-18T08:10:45;96405.47;;;10.73;68.68
70684;BME280;58263;48.146;11.440;2023-02-18T08:13:11;96405.22;;;10.81;68.22
70684;BME280;58263;48.146;11.440;2023-02-18T08:15:36;96411.69;;;10.73;68.39
70684;BME280;58263;48.146;11.440;2023-02-18T08:18:02;96386.66;;;10.79;68.07
70684;BME280;58263;48.146;11.440;2023-02-18T08:20:28;96411.63;;;10.87;67.96
70684;BME280;58263;48.146;11.440;2023-02-18T08:22:53;96419.03;;;10.85;67.49
70684;BME280;58263;48.146;11.440;2023-02-18T08:25:18;96409.69;;;10.94;67.45
70684;BME280;58263;48.146;11.440;2023-02-18T08:27:44;96393.97;;;10.97;67.14
70684;BME280;58263;48.146;11.440;2023-02-18T08:30:09;96405.94;;;11.02;66.85
70684;BME280;58263;48.146;11.440;2023-02-18T08:32:35;96394.28;;;11.14;66.61
70684;BME280;58263;48.146;11.440;2023-02-18T08:35:01;96391.34;;;10.91;66.84
70684;BME280;58263;48.146;11.440;2023-02-18T08:37:27;96398.34;;;10.92;66.66
70684;BME280;58263;48.146;11.440;2023-02-18T08:39:52;96394.28;;;10.82;67.50
70684;BME280;58263;48.146;11.440;2023-02-18T08:42:17;96399.59;;;10.89;67.69
70684;BME280;58263;48.146;11.440;2023-02-18T08:44:43;96388.09;;;10.82;67.65
70684;BME280;58263;48.146;11.440;2023-02-18T08:47:09;96378.34;;;10.88;68.06
70684;BME280;58263;48.146;11.440;2023-02-18T08:49:34;96382.25;;;10.92;68.03
70684;BME280;58263;48.146;11.440;2023-02-18T08:52:02;96392.56;;;10.95;67.98
70684;BME280;58263;48.146;11.440;2023-02-18T08:54:27;96379.56;;;10.92;68.10
70684;BME280;58263;48.146;11.440;2023-02-18T08:56:54;96376.00;;;10.98;67.83
70684;BME280;58263;48.146;11.440;2023-02-18T08:59:20;96374.59;;;10.95;67.68
70684;BME280;58263;48.146;11.440;2023-02-18T09:01:45;96371.69;;;10.97;67.58
70684;BME280;58263;48.146;11.440;2023-02-18T09:04:10;96371.03;;;11.02;67.27
70684;BME280;58263;48.146;11.440;2023-02-18T09:06:37;96377.19;;;11.09;67.05
70684;BME280;58263;48.146;11.440;2023-02-18T09:09:05;96374.28;;;11.10;66.88
70684;BME280;58263;48.146;11.440;2023-02-18T09:11:30;96371.72;;;11.22;66.50
70684;BME280;58263;48.146;11.440;2023-02-18T09:13:56;96368.81;;;11.24;66.44
70684;BME280;58263;48.146;11.440;2023-02-18T09:16:21;96373.56;;;11.22;66.44
70684;BME280;58263;48.146;11.440;2023-02-18T09:18:48;96366.41;;;11.15;66.60
70684;BME280;58263;48.146;11.440;2023-02-18T09:21:14;96372.06;;;11.26;66.51
70684;BME280;58263;48.146;11.440;2023-02-18T09:23:41;96366.72;;;11.26;66.44
70684;BME280;58263;48.146;11.440;2023-02-18T09:26:09;96362.94;;;11.33;66.14
70684;BME280;58263;48.146;11.440;2023-02-18T09:28:36;96360.25;;;11.33;65.92
70684;BME280;58263;48.146;11.440;2023-02-18T09:31:06;96370.31;;;11.38;65.69
70684;BME280;58263;48.146;11.440;2023-02-18T09:33:37;96368.13;;;11.54;65.55
70684;BME280;58263;48.146;11.440;2023-02-18T09:36:03;96371.06;;;11.52;65.20
70684;BME280;58263;48.146;11.440;2023-02-18T09:38:29;96365.59;;;11.59;64.84
70684;BME280;58263;48.146;11.440;2023-02-18T09:40:56;96359.47;;;11.52;65.19
70684;BME280;58263;48.146;11.440;2023-02-18T09:43:26;96346.88;;;11.71;64.54
70684;BME280;58263;48.146;11.440;2023-02-18T09:45:53;96345.31;;;11.81;64.39
70684;BME280;58263;48.146;11.440;2023-02-18T09:48:25;96357.44;;;11.91;63.87
70684;BME280;58263;48.146;11.440;2023-02-18T09:50:52;96330.84;;;12.01;63.36
70684;BME280;58263;48.146;11.440;2023-02-18T09:53:18;96325.94;;;12.16;62.64
70684;BME280;58263;48.146;11.440;2023-02-18T09:55:44;96325.25;;;12.51;62.33
70684;BME280;58263;48.146;11.440;2023-02-18T09:58:22;96325.38;;;12.57;61.20
70684;BME280;58263;48.146;11.440;2023-02-18T10:01:00;96324.44;;;12.51;61.13
70684;BME280;58263;48.146;11.440;2023-02-18T10:03:28;96315.63;;;12.74;60.81
70684;BME280;58263;48.146;11.440;2023-02-18T10:08:27;96311.00;;;13.05;60.07
70684;BME280;58263;48.146;11.440;2023-02-18T10:10:54;96312.63;;;12.94;60.16
70684;BME280;58263;48.146;11.440;2023-02-18T10:13:26;96299.41;;;13.05;59.78
70684;BME280;58263;48.146;11.440;2023-02-18T10:15:52;96296.03;;;13.21;59.66
70684;BME280;58263;48.146;11.440;2023-02-18T10:18:29;96300.00;;;13.30;59.46
70684;BME280;58263;48.146;11.440;2023-02-18T10:21:00;96303.31;;;13.68;58.78
70684;BME280;58263;48.146;11.440;2023-02-18T10:23:29;96273.91;;;13.66;57.19
70684;BME280;58263;48.146;11.440;2023-02-18T10:25:56;96285.09;;;13.99;56.51
70684;BME280;58263;48.146;11.440;2023-02-18T10:28:23;96293.34;;;14.21;56.19
70684;BME280;58263;48.146;11.440;2023-02-18T10:30:57;96278.59;;;14.12;55.24
70684;BME280;58263;48.146;11.440;2023-02-18T10:33:35;96293.50;;;14.43;55.17
70684;BME280;58263;48.146;11.440;2023-02-18T10:36:24;96270.63;;;14.92;53.27
70684;BME280;58263;48.146;11.440;2023-02-18T10:43:58;96262.19;;;16.00;50.71
70684;BME280;58263;48.146;11.440;2023-02-18T10:46:48;96264.41;;;16.03;50.12
70684;BME280;58263;48.146;11.440;2023-02-18T10:52:18;96252.06;;;16.40;49.21
70684;BME280;58263;48.146;11.440;2023-02-18T10:54:59;96242.78;;;16.31;49.09
70684;BME280;58263;48.146;11.440;2023-02-18T10:57:25;96238.06;;;16.48;48.54
70684;BME280;58263;48.146;11.440;2023-02-18T11:02:30;96228.78;;;16.39;48.61
70684;BME280;58263;48.146;11.440;2023-02-18T11:04:57;96224.72;;;16.96;47.74
70684;BME280;58263;48.146;11.440;2023-02-18T11:07:34;96212.41;;;16.88;47.13
70684;BME280;58263;48.146;11.440;2023-02-18T11:10:22;96206.53;;;17.34;46.37
70684;BME280;58263;48.146;11.440;2023-02-18T11:12:55;96196.44;;;17.72;45.15
70684;BME280;58263;48.146;11.440;2023-02-18T11:15:24;96185.44;;;18.00;44.68
70684;BME280;58263;48.146;11.440;2023-02-18T11:17:52;96185.53;;;18.82;43.37
70684;BME280;58263;48.146;11.440;2023-02-18T11:20:22;96190.97;;;18.67;43.32
70684;BME280;58263;48.146;11.440;2023-02-18T11:22:49;96197.50;;;19.12;42.46
70684;BME280;58263;48.146;11.440;2023-02-18T11:25:24;96192.00;;;19.38;41.51
70684;BME280;58263;48.146;11.440;2023-02-18T11:28:01;96189.81;;;19.40;41.76
70684;BME280;58263;48.146;11.440;2023-02-18T11:30:33;96182.81;;;19.08;41.73
70684;BME280;58263;48.146;11.440;2023-02-18T11:33:21;96170.56;;;20.02;40.16
70684;BME280;58263;48.146;11.440;2023-02-18T11:35:51;96183.47;;;20.31;38.55
70684;BME280;58263;48.146;11.440;2023-02-18T11:38:37;96165.81;;;20.63;37.92
70684;BME280;58263;48.146;11.440;2023-02-18T11:41:08;96182.63;;;20.35;38.54
70684;BME280;58263;48.146;11.440;2023-02-18T11:43:33;96168.84;;;20.16;39.11
70684;BME280;58263;48.146;11.440;2023-02-18T11:46:21;96175.69;;;19.38;40.18
70684;BME280;58263;48.146;11.440;2023-02-18T11:48:47;96176.28;;;18.63;41.44
70684;BME280;58263;48.146;11.440;2023-02-18T11:53:59;96147.47;;;18.41;41.47
70684;BME280;58263;48.146;11.440;2023-02-18T11:56:31;96151.56;;;18.38;41.28
70684;BME280;58263;48.146;11.440;2023-02-18T11:58:57;96150.19;;;18.56;41.06
70684;BME280;58263;48.146;11.440;2023-02-18T12:01:45;96155.06;;;18.23;41.94
70684;BME280;58263;48.146;11.440;2023-02-18T12:04:27;96146.94;;;18.44;42.02
70684;BME280;58263;48.146;11.440;2023-02-18T12:07:11;96153.94;;;18.04;43.11
70684;BME280;58263;48.146;11.440;2023-02-18T12:09:44;96139.75;;;17.86;43.25
70684;BME280;58263;48.146;11.440;2023-02-18T12:12:43;96142.31;;;17.50;43.39
70684;BME280;58263;48.146;11.440;2023-02-18T12:15:16;96125.22;;;17.45;43.45
70684;BME280;58263;48.146;11.440;2023-02-18T12:18:04;96124.41;;;17.44;43.84
70684;BME280;58263;48.146;11.440;2023-02-18T12:26:23;96109.78;;;17.45;44.14
70684;BME280;58263;48.146;11.440;2023-02-18T12:36:58;96097.38;;;17.06;45.05
70684;BME280;58263;48.146;11.440;2023-02-18T12:42:21;96106.97;;;17.30;44.99
70684;BME280;58263;48.146;11.440;2023-02-18T12:51:05;96100.00;;;16.91;45.77
70684;BME280;58263;48.146;11.440;2023-02-18T13:01:37;96102.19;;;17.52;44.70
70684;BME280;58263;48.146;11.440;2023-02-18T13:04:25;96094.00;;;17.32;44.96
70684;BME280;58263;48.146;11.440;2023-02-18T13:09:45;96101.88;;;17.44;44.56
70684;BME280;58263;48.146;11.440;2023-02-18T13:17:40;96084.88;;;17.64;44.03
70684;BME280;58263;48.146;11.440;2023-02-18T13:20:19;96086.00;;;17.78;44.12
70684;BME280;58263;48.146;11.440;2023-02-18T13:22:46;96085.94;;;17.57;44.07
70684;BME280;58263;48.146;11.440;2023-02-18T13:25:16;96098.91;;;17.40;44.10
70684;BME280;58263;48.146;11.440;2023-02-18T13:33:46;96077.66;;;15.76;47.95
70684;BME280;58263;48.146;11.440;2023-02-18T13:36:32;96073.03;;;15.99;47.74
70684;BME280;58263;48.146;11.440;2023-02-18T13:39:08;96069.28;;;15.50;48.30
70684;BME280;58263;48.146;11.440;2023-02-18T13:41:37;96079.22;;;15.45;48.34
70684;BME280;58263;48.146;11.440;2023-02-18T13:44:07;96083.69;;;15.34;48.62
70684;BME280;58263;48.146;11.440;2023-02-18T13:46:46;96088.34;;;15.16;48.67
70684;BME280;58263;48.146;11.440;2023-02-18T13:49:21;96070.84;;;15.02;48.76
70684;BME280;58263;48.146;11.440;2023-02-18T13:51:49;96072.09;;;14.72;49.48
70684;BME280;58263;48.146;11.440;2023-02-18T13:54:37;96094.69;;;14.66;49.63
70684;BME280;58263;48.146;11.440;2023-02-18T13:57:16;96077.41;;;14.50;49.99
70684;BME280;58263;48.146;11.440;2023-02-18T13:59:45;96071.78;;;14.68;49.88
70684;BME280;58263;48.146;11.440;2023-02-18T14:02:29;96087.88;;;14.46;50.25
70684;BME280;58263;48.146;11.440;2023-02-18T14:04:56;96073.41;;;14.35;50.40
70684;BME280;58263;48.146;11.440;2023-02-18T14:13:01;96070.94;;;14.34;50.52
70684;BME280;58263;48.146;11.440;2023-02-18T14:21:04;96106.38;;;13.75;51.31
70684;BME280;58263;48.146;11.440;2023-02-18T14:24:03;96099.22;;;13.97;51.09
70684;BME280;58263;48.146;11.440;2023-02-18T14:26:36;96068.38;;;13.76;51.54
70684;BME280;58263;48.146;11.440;2023-02-18T14:29:12;96088.94;;;13.65;52.38
70684;BME280;58263;48.146;11.440;2023-02-18T14:31:51;96074.19;;;13.68;52.43
70684;BME280;58263;48.146;11.440;2023-02-18T14:37:30;96086.22;;;13.48;52.80
70684;BME280;58263;48.146;11.440;2023-02-18T14:50:55;96078.94;;;13.49;53.60
70684;BME280;58263;48.146;11.440;2023-02-18T14:53:23;96085.38;;;13.48;53.47
70684;BME280;58263;48.146;11.440;2023-02-18T14:55:57;96074.19;;;13.39;53.22
70684;BME280;58263;48.146;11.440;2023-02-18T14:58:38;96086.94;;;13.32;54.05
70684;BME280;58263;48.146;11.440;2023-02-18T15:01:23;96089.19;;;13.23;54.13
70684;BME280;58263;48.146;11.440;2023-02-18T15:03:51;96081.47;;;13.27;54.34
70684;BME280;58263;48.146;11.440;2023-02-18T15:08:52;96080.75;;;13.19;54.39
70684;BME280;58263;48.146;11.440;2023-02-18T15:11:19;96082.78;;;13.12;54.03
70684;BME280;58263;48.146;11.440;2023-02-18T15:13:45;96067.41;;;13.13;53.73
70684;BME280;58263;48.146;11.440;2023-02-18T15:16:32;96071.19;;;13.12;53.43